Overview Statistics Trail Chart Weather Telemetry Raw packets
 

This is the latest recevied weather packets stored in our database for station/object KB0BDN-13. If no packets are shown the sender has not sent any weather packets the latest 10 day(s).

<< 32 33 34 35 36 37 38 >>
Time Temp. Humidity Pressure Rain* Wind** Luminosity Snow
1788299051 23.33° C 64% 1003.2 hPa 0 mm - - -
1788298297 23.33° C 64% 1003.2 hPa 0 mm - - -
1788298151 23.33° C 63% 1003.2 hPa 0 mm - - -
1788297398 23.33° C 65% 1003.2 hPa 0 mm - - -
1788297251 23.33° C 66% 1003.3 hPa 0 mm - - -
1788296497 23.33° C 65% 1003.3 hPa 0 mm - - -
1788296351 23.33° C 64% 1003.2 hPa 0 mm - - -
1788295595 23.33° C 62% 1003.2 hPa 0 mm - - -
1788295453 23.33° C 62% 1003.1 hPa 0 mm - - -
1788294694 23.33° C 63% 1003.1 hPa 0 mm - - -
1788294553 23.33° C 64% 1003.2 hPa 0 mm - - -
1788293794 22.78° C 65% 1003.2 hPa 0 mm - - -
1788292894 23.89° C 62% 1003.3 hPa 0 mm - - -
1788292752 23.89° C 62% 1003.3 hPa 0 mm - - -
1788291997 23.89° C 62% 1003.3 hPa 0 mm - - -
1788291094 23.33° C 63% 1003.4 hPa 0 mm - - -
1788290952 23.33° C 64% 1003.4 hPa 0 mm - - -
1788290196 22.78° C 65% 1003.4 hPa 0 mm - - -
1788290054 22.78° C 66% 1003.3 hPa 0 mm - - -
1788289295 23.33° C 61% 1003.3 hPa 0 mm - - -
1788289153 23.33° C 62% 1003.4 hPa 0 mm - - -
1788288395 23.33° C 63% 1003.4 hPa 0 mm - - -
1788288254 23.33° C 64% 1003.6 hPa 0 mm - - -
1788287500 23.33° C 61% 1003.6 hPa 0 mm - - -
1788287354 23.89° C 61% 1003.6 hPa 0 mm - - -

* Rain latest hour (hover to see other rain measurements)
** Current wind speed in m/s (hover to see current wind gust speed)